KOCH/OCH METAR and TAF weather

Enter ICAO airport designator
Station Type Date Time Source
KOCH METAR 2019/02/23 00:35 UTC NOAA

KOCH 230035Z AUTO 02003KT 1SM BR OVC003 13/13 A2992 RMK AO2 RVRNO


Station Type Date Time Source
KOCH Decoded METAR 2019/02/23 00:35 UTC NOAA

Nacogdoches, A L Mangham Jr. Regional Airport, TX, United States (KOCH) 31-35N 094-43W
Feb 22, 2019 - 07:35 PM EST / 2019.02.23 0035 UTC
Wind: from the NNE (020 degrees) at 3 MPH (3 KT):0
Visibility: 1 mile(s):0
Sky conditions: overcast
Weather: mist
Temperature: 55 F (13 C)
Dew Point: 55 F (13 C)
Relative Humidity: 100%
Pressure (altimeter): 29.92 in. Hg (1013 hPa)
ob: KOCH 230035Z AUTO 02003KT 1SM BR OVC003 13/13 A2992 RMK AO2 RVRNO
cycle: 0

Station Type Date Time Source
KOCH TAF UTC NOAA

Error!


Example: see airport list